sensor_id;sensor_type;location;lat;lon;timestamp;P1;durP1;ratioP1;P2;durP2;ratioP2
42668;SDS011;29384;42.028;21.388;2022-11-11T00:01:53;51.35;;;23.48;;
42668;SDS011;29384;42.028;21.388;2022-11-11T00:04:19;39.33;;;20.90;;
42668;SDS011;29384;42.028;21.388;2022-11-11T00:06:45;42.45;;;22.40;;
42668;SDS011;29384;42.028;21.388;2022-11-11T00:12:33;44.28;;;22.35;;
42668;SDS011;29384;42.028;21.388;2022-11-11T00:14:58;43.30;;;22.90;;
42668;SDS011;29384;42.028;21.388;2022-11-11T00:17:24;31.67;;;18.48;;
42668;SDS011;29384;42.028;21.388;2022-11-11T00:20:09;33.17;;;18.63;;
42668;SDS011;29384;42.028;21.388;2022-11-11T00:22:54;34.78;;;16.42;;
42668;SDS011;29384;42.028;21.388;2022-11-11T00:28:03;29.40;;;16.05;;
42668;SDS011;29384;42.028;21.388;2022-11-11T00:30:29;36.17;;;19.05;;
42668;SDS011;29384;42.028;21.388;2022-11-11T00:32:54;30.50;;;16.55;;
42668;SDS011;29384;42.028;21.388;2022-11-11T00:35:20;36.28;;;17.75;;
42668;SDS011;29384;42.028;21.388;2022-11-11T00:38:11;44.58;;;19.52;;
42668;SDS011;29384;42.028;21.388;2022-11-11T00:40:58;40.83;;;17.60;;
42668;SDS011;29384;42.028;21.388;2022-11-11T00:43:24;38.33;;;21.48;;
42668;SDS011;29384;42.028;21.388;2022-11-11T00:45:50;69.15;;;36.42;;
42668;SDS011;29384;42.028;21.388;2022-11-11T00:48:15;68.22;;;38.35;;
42668;SDS011;29384;42.028;21.388;2022-11-11T00:50:59;83.35;;;44.45;;
42668;SDS011;29384;42.028;21.388;2022-11-11T00:53:28;91.78;;;48.58;;
42668;SDS011;29384;42.028;21.388;2022-11-11T00:56:00;97.90;;;52.67;;
42668;SDS011;29384;42.028;21.388;2022-11-11T00:58:26;105.32;;;53.80;;
42668;SDS011;29384;42.028;21.388;2022-11-11T01:00:52;95.82;;;50.97;;
42668;SDS011;29384;42.028;21.388;2022-11-11T01:03:18;95.03;;;50.22;;
42668;SDS011;29384;42.028;21.388;2022-11-11T01:05:44;90.10;;;50.03;;
42668;SDS011;29384;42.028;21.388;2022-11-11T01:08:10;94.18;;;49.22;;
42668;SDS011;29384;42.028;21.388;2022-11-11T01:10:36;80.97;;;37.90;;
42668;SDS011;29384;42.028;21.388;2022-11-11T01:15:59;81.70;;;34.47;;
42668;SDS011;29384;42.028;21.388;2022-11-11T01:18:26;69.00;;;35.83;;
42668;SDS011;29384;42.028;21.388;2022-11-11T01:21:08;72.45;;;33.95;;
42668;SDS011;29384;42.028;21.388;2022-11-11T01:23:40;77.00;;;33.85;;
42668;SDS011;29384;42.028;21.388;2022-11-11T01:26:39;75.75;;;36.80;;
42668;SDS011;29384;42.028;21.388;2022-11-11T01:28:58;70.93;;;33.10;;
42668;SDS011;29384;42.028;21.388;2022-11-11T01:31:24;71.07;;;35.20;;
42668;SDS011;29384;42.028;21.388;2022-11-11T01:33:50;88.50;;;36.10;;
42668;SDS011;29384;42.028;21.388;2022-11-11T01:36:17;92.93;;;39.22;;
42668;SDS011;29384;42.028;21.388;2022-11-11T01:38:47;77.88;;;37.20;;
42668;SDS011;29384;42.028;21.388;2022-11-11T01:41:15;91.55;;;41.20;;
42668;SDS011;29384;42.028;21.388;2022-11-11T01:44:02;94.15;;;41.03;;
42668;SDS011;29384;42.028;21.388;2022-11-11T01:46:34;94.38;;;40.70;;
42668;SDS011;29384;42.028;21.388;2022-11-11T01:49:17;100.22;;;39.72;;
42668;SDS011;29384;42.028;21.388;2022-11-11T01:55:09;82.68;;;33.45;;
42668;SDS011;29384;42.028;21.388;2022-11-11T01:57:42;72.18;;;34.78;;
42668;SDS011;29384;42.028;21.388;2022-11-11T02:00:13;68.10;;;32.28;;
42668;SDS011;29384;42.028;21.388;2022-11-11T02:02:50;64.93;;;31.58;;
42668;SDS011;29384;42.028;21.388;2022-11-11T02:05:20;63.20;;;31.88;;
42668;SDS011;29384;42.028;21.388;2022-11-11T02:11:27;64.90;;;28.67;;
42668;SDS011;29384;42.028;21.388;2022-11-11T02:14:14;66.80;;;31.85;;
42668;SDS011;29384;42.028;21.388;2022-11-11T02:16:58;60.28;;;29.27;;
42668;SDS011;29384;42.028;21.388;2022-11-11T02:19:27;63.72;;;29.55;;
42668;SDS011;29384;42.028;21.388;2022-11-11T02:21:59;59.42;;;29.77;;
42668;SDS011;29384;42.028;21.388;2022-11-11T02:27:48;50.38;;;26.65;;
42668;SDS011;29384;42.028;21.388;2022-11-11T02:30:16;60.47;;;27.88;;
42668;SDS011;29384;42.028;21.388;2022-11-11T02:32:43;48.95;;;25.23;;
42668;SDS011;29384;42.028;21.388;2022-11-11T02:35:16;52.28;;;26.52;;
42668;SDS011;29384;42.028;21.388;2022-11-11T02:37:56;48.85;;;25.13;;
42668;SDS011;29384;42.028;21.388;2022-11-11T02:40:29;47.70;;;24.60;;
42668;SDS011;29384;42.028;21.388;2022-11-11T02:42:59;47.97;;;23.52;;
42668;SDS011;29384;42.028;21.388;2022-11-11T02:45:24;47.58;;;24.33;;
42668;SDS011;29384;42.028;21.388;2022-11-11T02:47:50;50.13;;;23.83;;
42668;SDS011;29384;42.028;21.388;2022-11-11T02:50:15;56.75;;;23.50;;
42668;SDS011;29384;42.028;21.388;2022-11-11T02:52:41;39.85;;;21.23;;
42668;SDS011;29384;42.028;21.388;2022-11-11T02:55:07;46.22;;;23.45;;
42668;SDS011;29384;42.028;21.388;2022-11-11T02:57:33;48.88;;;22.77;;
42668;SDS011;29384;42.028;21.388;2022-11-11T02:59:59;42.80;;;23.35;;
42668;SDS011;29384;42.028;21.388;2022-11-11T03:02:25;49.67;;;23.52;;
42668;SDS011;29384;42.028;21.388;2022-11-11T03:04:54;45.03;;;22.02;;
42668;SDS011;29384;42.028;21.388;2022-11-11T03:07:21;47.92;;;21.88;;
42668;SDS011;29384;42.028;21.388;2022-11-11T03:13:09;44.88;;;22.15;;
42668;SDS011;29384;42.028;21.388;2022-11-11T03:15:35;45.42;;;22.23;;
42668;SDS011;29384;42.028;21.388;2022-11-11T03:18:00;37.83;;;21.17;;
42668;SDS011;29384;42.028;21.388;2022-11-11T03:20:26;43.88;;;22.20;;
42668;SDS011;29384;42.028;21.388;2022-11-11T03:23:13;43.78;;;20.60;;
42668;SDS011;29384;42.028;21.388;2022-11-11T03:25:44;64.45;;;27.20;;
42668;SDS011;29384;42.028;21.388;2022-11-11T03:28:20;75.60;;;29.17;;
42668;SDS011;29384;42.028;21.388;2022-11-11T03:30:47;64.03;;;28.45;;
42668;SDS011;29384;42.028;21.388;2022-11-11T03:33:14;50.90;;;24.55;;
42668;SDS011;29384;42.028;21.388;2022-11-11T03:35:40;47.47;;;22.77;;
42668;SDS011;29384;42.028;21.388;2022-11-11T03:38:08;45.90;;;22.70;;
42668;SDS011;29384;42.028;21.388;2022-11-11T03:40:49;42.47;;;20.63;;
42668;SDS011;29384;42.028;21.388;2022-11-11T03:43:16;39.90;;;20.98;;
42668;SDS011;29384;42.028;21.388;2022-11-11T03:45:43;45.55;;;23.15;;
42668;SDS011;29384;42.028;21.388;2022-11-11T03:48:09;46.50;;;19.75;;
42668;SDS011;29384;42.028;21.388;2022-11-11T03:50:35;41.65;;;20.45;;
42668;SDS011;29384;42.028;21.388;2022-11-11T03:53:01;41.60;;;21.95;;
42668;SDS011;29384;42.028;21.388;2022-11-11T03:55:28;42.05;;;21.08;;
42668;SDS011;29384;42.028;21.388;2022-11-11T03:57:53;49.80;;;23.40;;
42668;SDS011;29384;42.028;21.388;2022-11-11T04:00:20;51.00;;;23.98;;
42668;SDS011;29384;42.028;21.388;2022-11-11T04:02:47;61.22;;;25.17;;
42668;SDS011;29384;42.028;21.388;2022-11-11T04:05:31;55.58;;;27.10;;
42668;SDS011;29384;42.028;21.388;2022-11-11T04:08:16;57.03;;;26.40;;
42668;SDS011;29384;42.028;21.388;2022-11-11T04:11:11;70.10;;;27.33;;
42668;SDS011;29384;42.028;21.388;2022-11-11T04:13:39;62.55;;;26.88;;
42668;SDS011;29384;42.028;21.388;2022-11-11T04:16:27;55.65;;;24.17;;
42668;SDS011;29384;42.028;21.388;2022-11-11T04:18:52;55.58;;;26.13;;
42668;SDS011;29384;42.028;21.388;2022-11-11T04:21:36;58.75;;;27.50;;
42668;SDS011;29384;42.028;21.388;2022-11-11T04:24:08;46.25;;;23.42;;
42668;SDS011;29384;42.028;21.388;2022-11-11T04:26:54;54.53;;;24.90;;
42668;SDS011;29384;42.028;21.388;2022-11-11T04:29:21;50.17;;;23.85;;
42668;SDS011;29384;42.028;21.388;2022-11-11T04:32:00;46.70;;;24.63;;
42668;SDS011;29384;42.028;21.388;2022-11-11T04:34:45;56.35;;;26.00;;
42668;SDS011;29384;42.028;21.388;2022-11-11T04:37:12;48.83;;;24.45;;
42668;SDS011;29384;42.028;21.388;2022-11-11T04:39:38;52.22;;;23.67;;
42668;SDS011;29384;42.028;21.388;2022-11-11T04:42:22;52.00;;;21.80;;
42668;SDS011;29384;42.028;21.388;2022-11-11T04:44:47;46.35;;;22.58;;
42668;SDS011;29384;42.028;21.388;2022-11-11T04:47:32;52.28;;;24.15;;
42668;SDS011;29384;42.028;21.388;2022-11-11T04:49:57;51.90;;;25.15;;
42668;SDS011;29384;42.028;21.388;2022-11-11T04:52:23;42.50;;;22.25;;
42668;SDS011;29384;42.028;21.388;2022-11-11T04:54:52;41.38;;;22.38;;
42668;SDS011;29384;42.028;21.388;2022-11-11T04:57:43;48.45;;;24.05;;
42668;SDS011;29384;42.028;21.388;2022-11-11T05:00:13;44.90;;;23.80;;
42668;SDS011;29384;42.028;21.388;2022-11-11T05:02:41;42.90;;;22.85;;
42668;SDS011;29384;42.028;21.388;2022-11-11T05:05:25;41.85;;;21.85;;
42668;SDS011;29384;42.028;21.388;2022-11-11T05:11:12;45.45;;;24.00;;
42668;SDS011;29384;42.028;21.388;2022-11-11T05:13:38;48.80;;;20.73;;
42668;SDS011;29384;42.028;21.388;2022-11-11T05:16:24;50.20;;;24.70;;
42668;SDS011;29384;42.028;21.388;2022-11-11T05:19:11;60.03;;;26.35;;
42668;SDS011;29384;42.028;21.388;2022-11-11T05:21:59;58.65;;;25.95;;
42668;SDS011;29384;42.028;21.388;2022-11-11T05:28:01;56.70;;;27.10;;
42668;SDS011;29384;42.028;21.388;2022-11-11T05:30:26;56.65;;;26.23;;
42668;SDS011;29384;42.028;21.388;2022-11-11T05:32:53;46.50;;;23.98;;
42668;SDS011;29384;42.028;21.388;2022-11-11T05:35:20;51.03;;;26.40;;
42668;SDS011;29384;42.028;21.388;2022-11-11T05:37:45;53.20;;;26.17;;
42668;SDS011;29384;42.028;21.388;2022-11-11T05:43:52;51.35;;;23.83;;
42668;SDS011;29384;42.028;21.388;2022-11-11T05:46:18;53.13;;;25.40;;
42668;SDS011;29384;42.028;21.388;2022-11-11T05:48:43;56.20;;;25.48;;
42668;SDS011;29384;42.028;21.388;2022-11-11T05:54:03;49.88;;;25.88;;
42668;SDS011;29384;42.028;21.388;2022-11-11T05:56:29;48.05;;;23.10;;
42668;SDS011;29384;42.028;21.388;2022-11-11T05:58:55;51.25;;;24.38;;
42668;SDS011;29384;42.028;21.388;2022-11-11T06:01:20;44.47;;;22.00;;
42668;SDS011;29384;42.028;21.388;2022-11-11T06:03:46;58.63;;;24.10;;
42668;SDS011;29384;42.028;21.388;2022-11-11T06:06:11;37.88;;;19.65;;
42668;SDS011;29384;42.028;21.388;2022-11-11T06:08:38;49.53;;;20.27;;
42668;SDS011;29384;42.028;21.388;2022-11-11T06:11:04;48.65;;;21.40;;
42668;SDS011;29384;42.028;21.388;2022-11-11T06:13:29;53.88;;;24.23;;
42668;SDS011;29384;42.028;21.388;2022-11-11T06:15:55;51.30;;;23.50;;
42668;SDS011;29384;42.028;21.388;2022-11-11T06:18:21;62.28;;;23.73;;
42668;SDS011;29384;42.028;21.388;2022-11-11T06:20:54;51.95;;;24.35;;
42668;SDS011;29384;42.028;21.388;2022-11-11T06:23:20;60.38;;;25.95;;
42668;SDS011;29384;42.028;21.388;2022-11-11T06:25:46;61.53;;;25.30;;
42668;SDS011;29384;42.028;21.388;2022-11-11T06:28:30;81.43;;;27.85;;
42668;SDS011;29384;42.028;21.388;2022-11-11T06:30:55;56.38;;;26.98;;
42668;SDS011;29384;42.028;21.388;2022-11-11T06:33:21;54.63;;;27.75;;
42668;SDS011;29384;42.028;21.388;2022-11-11T06:35:47;59.83;;;27.77;;
42668;SDS011;29384;42.028;21.388;2022-11-11T06:38:12;63.17;;;26.50;;
42668;SDS011;29384;42.028;21.388;2022-11-11T06:40:38;55.47;;;26.27;;
42668;SDS011;29384;42.028;21.388;2022-11-11T06:43:04;54.47;;;27.15;;
42668;SDS011;29384;42.028;21.388;2022-11-11T06:45:29;43.78;;;23.25;;
42668;SDS011;29384;42.028;21.388;2022-11-11T06:47:55;53.08;;;24.60;;
42668;SDS011;29384;42.028;21.388;2022-11-11T06:50:21;49.55;;;25.35;;
42668;SDS011;29384;42.028;21.388;2022-11-11T06:52:47;49.53;;;24.38;;
42668;SDS011;29384;42.028;21.388;2022-11-11T06:58:34;40.63;;;23.65;;
42668;SDS011;29384;42.028;21.388;2022-11-11T07:01:03;43.63;;;22.48;;
42668;SDS011;29384;42.028;21.388;2022-11-11T07:03:29;41.20;;;23.30;;
42668;SDS011;29384;42.028;21.388;2022-11-11T07:05:55;42.10;;;20.50;;
42668;SDS011;29384;42.028;21.388;2022-11-11T07:08:21;54.78;;;21.42;;
42668;SDS011;29384;42.028;21.388;2022-11-11T07:10:47;35.63;;;18.42;;
42668;SDS011;29384;42.028;21.388;2022-11-11T07:13:13;41.20;;;20.98;;
42668;SDS011;29384;42.028;21.388;2022-11-11T07:15:40;34.20;;;19.30;;
42668;SDS011;29384;42.028;21.388;2022-11-11T07:18:07;51.65;;;20.08;;
42668;SDS011;29384;42.028;21.388;2022-11-11T07:20:33;34.00;;;19.27;;
42668;SDS011;29384;42.028;21.388;2022-11-11T07:22:59;44.45;;;20.75;;
42668;SDS011;29384;42.028;21.388;2022-11-11T07:28:46;45.35;;;20.05;;
42668;SDS011;29384;42.028;21.388;2022-11-11T07:31:14;38.13;;;18.02;;
42668;SDS011;29384;42.028;21.388;2022-11-11T07:33:42;38.80;;;19.27;;
42668;SDS011;29384;42.028;21.388;2022-11-11T07:36:08;36.20;;;20.02;;
42668;SDS011;29384;42.028;21.388;2022-11-11T07:38:36;35.50;;;19.65;;
42668;SDS011;29384;42.028;21.388;2022-11-11T07:41:07;40.28;;;18.45;;
42668;SDS011;29384;42.028;21.388;2022-11-11T07:43:32;31.38;;;17.88;;
42668;SDS011;29384;42.028;21.388;2022-11-11T07:46:00;25.33;;;14.90;;
42668;SDS011;29384;42.028;21.388;2022-11-11T07:48:26;21.58;;;12.68;;
42668;SDS011;29384;42.028;21.388;2022-11-11T07:50:56;24.77;;;12.68;;
42668;SDS011;29384;42.028;21.388;2022-11-11T07:53:24;19.08;;;10.02;;
42668;SDS011;29384;42.028;21.388;2022-11-11T07:55:52;23.45;;;11.45;;
42668;SDS011;29384;42.028;21.388;2022-11-11T07:58:18;21.27;;;10.63;;
42668;SDS011;29384;42.028;21.388;2022-11-11T08:00:44;19.73;;;10.35;;
42668;SDS011;29384;42.028;21.388;2022-11-11T08:03:18;17.75;;;10.77;;
42668;SDS011;29384;42.028;21.388;2022-11-11T08:05:43;16.83;;;10.80;;
42668;SDS011;29384;42.028;21.388;2022-11-11T08:08:09;18.15;;;11.07;;
42668;SDS011;29384;42.028;21.388;2022-11-11T08:13:57;15.40;;;10.73;;
42668;SDS011;29384;42.028;21.388;2022-11-11T08:16:22;28.25;;;11.43;;
42668;SDS011;29384;42.028;21.388;2022-11-11T08:18:48;20.33;;;11.20;;
42668;SDS011;29384;42.028;21.388;2022-11-11T08:21:13;17.73;;;9.98;;
42668;SDS011;29384;42.028;21.388;2022-11-11T08:23:38;23.02;;;12.10;;
42668;SDS011;29384;42.028;21.388;2022-11-11T08:26:04;21.88;;;10.55;;
42668;SDS011;29384;42.028;21.388;2022-11-11T08:28:32;17.15;;;9.63;;
42668;SDS011;29384;42.028;21.388;2022-11-11T08:30:59;13.65;;;9.10;;
42668;SDS011;29384;42.028;21.388;2022-11-11T08:33:26;17.23;;;10.13;;
42668;SDS011;29384;42.028;21.388;2022-11-11T08:35:53;21.73;;;9.80;;
42668;SDS011;29384;42.028;21.388;2022-11-11T08:38:20;17.30;;;10.32;;
42668;SDS011;29384;42.028;21.388;2022-11-11T08:40:47;14.07;;;8.48;;
42668;SDS011;29384;42.028;21.388;2022-11-11T08:43:13;10.90;;;8.00;;
42668;SDS011;29384;42.028;21.388;2022-11-11T08:45:39;10.18;;;7.70;;
42668;SDS011;29384;42.028;21.388;2022-11-11T08:48:04;11.25;;;6.75;;
42668;SDS011;29384;42.028;21.388;2022-11-11T08:50:34;20.65;;;12.27;;
42668;SDS011;29384;42.028;21.388;2022-11-11T08:53:00;23.77;;;15.43;;
42668;SDS011;29384;42.028;21.388;2022-11-11T08:58:47;30.70;;;14.38;;
42668;SDS011;29384;42.028;21.388;2022-11-11T09:01:13;26.13;;;14.98;;
42668;SDS011;29384;42.028;21.388;2022-11-11T09:03:40;37.13;;;12.02;;
42668;SDS011;29384;42.028;21.388;2022-11-11T09:06:08;27.70;;;14.95;;
42668;SDS011;29384;42.028;21.388;2022-11-11T09:08:34;40.00;;;18.77;;
42668;SDS011;29384;42.028;21.388;2022-11-11T09:11:00;38.78;;;17.55;;
42668;SDS011;29384;42.028;21.388;2022-11-11T09:13:25;30.10;;;14.75;;
42668;SDS011;29384;42.028;21.388;2022-11-11T09:15:52;31.05;;;16.70;;
42668;SDS011;29384;42.028;21.388;2022-11-11T09:18:21;33.17;;;16.88;;
42668;SDS011;29384;42.028;21.388;2022-11-11T09:20:47;41.80;;;18.90;;
42668;SDS011;29384;42.028;21.388;2022-11-11T09:23:14;41.58;;;16.50;;
42668;SDS011;29384;42.028;21.388;2022-11-11T09:29:04;45.67;;;18.02;;
42668;SDS011;29384;42.028;21.388;2022-11-11T09:31:30;38.25;;;17.63;;
42668;SDS011;29384;42.028;21.388;2022-11-11T09:33:55;30.10;;;15.65;;
42668;SDS011;29384;42.028;21.388;2022-11-11T09:36:21;25.70;;;14.43;;
42668;SDS011;29384;42.028;21.388;2022-11-11T09:38:46;27.10;;;14.80;;
42668;SDS011;29384;42.028;21.388;2022-11-11T09:41:14;22.17;;;13.55;;
42668;SDS011;29384;42.028;21.388;2022-11-11T09:46:44;17.87;;;11.13;;
42668;SDS011;29384;42.028;21.388;2022-11-11T09:49:29;15.90;;;10.73;;
42668;SDS011;29384;42.028;21.388;2022-11-11T09:52:18;19.38;;;10.38;;
42668;SDS011;29384;42.028;21.388;2022-11-11T09:54:54;14.05;;;8.98;;
42668;SDS011;29384;42.028;21.388;2022-11-11T09:57:38;14.60;;;8.73;;
42668;SDS011;29384;42.028;21.388;2022-11-11T10:00:19;14.13;;;8.23;;
42668;SDS011;29384;42.028;21.388;2022-11-11T10:03:31;14.65;;;8.77;;
42668;SDS011;29384;42.028;21.388;2022-11-11T10:05:45;11.48;;;7.47;;
42668;SDS011;29384;42.028;21.388;2022-11-11T10:10:44;12.20;;;9.50;;
42668;SDS011;29384;42.028;21.388;2022-11-11T10:13:34;13.13;;;9.07;;
42668;SDS011;29384;42.028;21.388;2022-11-11T10:21:39;6.22;;;4.82;;
42668;SDS011;29384;42.028;21.388;2022-11-11T10:27:30;3.90;;;3.58;;
42668;SDS011;29384;42.028;21.388;2022-11-11T10:29:57;4.47;;;4.00;;
42668;SDS011;29384;42.028;21.388;2022-11-11T10:32:24;4.68;;;4.25;;
42668;SDS011;29384;42.028;21.388;2022-11-11T10:34:56;5.25;;;4.47;;
42668;SDS011;29384;42.028;21.388;2022-11-11T10:37:38;4.75;;;4.32;;
42668;SDS011;29384;42.028;21.388;2022-11-11T10:43:27;4.45;;;3.88;;
42668;SDS011;29384;42.028;21.388;2022-11-11T10:51:05;5.47;;;4.97;;
42668;SDS011;29384;42.028;21.388;2022-11-11T10:53:40;5.28;;;3.70;;
42668;SDS011;29384;42.028;21.388;2022-11-11T11:00:21;11.52;;;5.53;;
42668;SDS011;29384;42.028;21.388;2022-11-11T11:08:08;6.05;;;3.78;;
42668;SDS011;29384;42.028;21.388;2022-11-11T11:14:02;5.10;;;3.60;;
42668;SDS011;29384;42.028;21.388;2022-11-11T11:16:45;2.70;;;2.50;;
42668;SDS011;29384;42.028;21.388;2022-11-11T11:19:19;4.25;;;2.95;;
42668;SDS011;29384;42.028;21.388;2022-11-11T11:24:23;3.03;;;2.80;;
42668;SDS011;29384;42.028;21.388;2022-11-11T11:26:59;3.15;;;2.95;;
42668;SDS011;29384;42.028;21.388;2022-11-11T11:29:42;3.30;;;3.10;;
42668;SDS011;29384;42.028;21.388;2022-11-11T11:32:18;5.95;;;3.78;;
42668;SDS011;29384;42.028;21.388;2022-11-11T11:34:51;3.15;;;2.95;;
42668;SDS011;29384;42.028;21.388;2022-11-11T11:37:19;2.75;;;2.22;;
42668;SDS011;29384;42.028;21.388;2022-11-11T11:39:46;2.63;;;2.42;;
42668;SDS011;29384;42.028;21.388;2022-11-11T11:45:33;2.20;;;2.10;;
42668;SDS011;29384;42.028;21.388;2022-11-11T11:51:12;2.38;;;2.28;;
42668;SDS011;29384;42.028;21.388;2022-11-11T11:56:45;3.65;;;2.13;;
42668;SDS011;29384;42.028;21.388;2022-11-11T12:13:22;2.00;;;1.90;;
42668;SDS011;29384;42.028;21.388;2022-11-11T12:15:58;2.53;;;1.80;;
42668;SDS011;29384;42.028;21.388;2022-11-11T12:21:53;0.98;;;0.98;;
42668;SDS011;29384;42.028;21.388;2022-11-11T12:28:01;2.05;;;1.92;;
42668;SDS011;29384;42.028;21.388;2022-11-11T12:30:28;1.38;;;1.33;;
42668;SDS011;29384;42.028;21.388;2022-11-11T12:35:46;1.95;;;1.85;;
42668;SDS011;29384;42.028;21.388;2022-11-11T12:44:22;1.67;;;1.58;;
42668;SDS011;29384;42.028;21.388;2022-11-11T12:50:32;3.25;;;2.38;;
42668;SDS011;29384;42.028;21.388;2022-11-11T12:58:59;2.50;;;2.30;;
42668;SDS011;29384;42.028;21.388;2022-11-11T13:07:10;1.73;;;1.63;;
42668;SDS011;29384;42.028;21.388;2022-11-11T13:15:55;1.88;;;1.73;;
42668;SDS011;29384;42.028;21.388;2022-11-11T13:18:29;4.25;;;1.63;;
42668;SDS011;29384;42.028;21.388;2022-11-11T13:21:03;2.03;;;1.92;;
42668;SDS011;29384;42.028;21.388;2022-11-11T13:23:34;2.45;;;1.80;;
42668;SDS011;29384;42.028;21.388;2022-11-11T13:32:10;1.40;;;1.30;;
42668;SDS011;29384;42.028;21.388;2022-11-11T13:34:39;1.60;;;1.50;;
42668;SDS011;29384;42.028;21.388;2022-11-11T13:37:06;1.60;;;1.58;;
42668;SDS011;29384;42.028;21.388;2022-11-11T13:39:48;1.38;;;1.27;;
42668;SDS011;29384;42.028;21.388;2022-11-11T13:42:26;1.63;;;1.52;;
42668;SDS011;29384;42.028;21.388;2022-11-11T13:44:55;1.65;;;1.55;;
42668;SDS011;29384;42.028;21.388;2022-11-11T13:47:29;1.75;;;1.55;;
42668;SDS011;29384;42.028;21.388;2022-11-11T13:50:11;3.30;;;2.17;;
42668;SDS011;29384;42.028;21.388;2022-11-11T13:53:04;5.63;;;2.53;;
42668;SDS011;29384;42.028;21.388;2022-11-11T13:55:38;2.10;;;1.90;;
42668;SDS011;29384;42.028;21.388;2022-11-11T13:58:06;1.55;;;1.10;;
42668;SDS011;29384;42.028;21.388;2022-11-11T14:00:46;1.33;;;1.23;;
42668;SDS011;29384;42.028;21.388;2022-11-11T14:06:12;1.83;;;1.67;;
42668;SDS011;29384;42.028;21.388;2022-11-11T14:13:53;1.58;;;1.48;;
42668;SDS011;29384;42.028;21.388;2022-11-11T14:22:00;1.80;;;1.70;;
42668;SDS011;29384;42.028;21.388;2022-11-11T14:27:49;4.70;;;1.65;;
42668;SDS011;29384;42.028;21.388;2022-11-11T14:30:37;1.75;;;1.65;;
42668;SDS011;29384;42.028;21.388;2022-11-11T14:35:57;2.95;;;1.45;;
42668;SDS011;29384;42.028;21.388;2022-11-11T14:52:41;1.77;;;1.60;;
42668;SDS011;29384;42.028;21.388;2022-11-11T15:00:11;7.80;;;3.88;;
42668;SDS011;29384;42.028;21.388;2022-11-11T15:02:50;4.75;;;2.55;;
42668;SDS011;29384;42.028;21.388;2022-11-11T15:05:22;3.17;;;2.88;;
42668;SDS011;29384;42.028;21.388;2022-11-11T15:10:32;4.30;;;3.63;;
42668;SDS011;29384;42.028;21.388;2022-11-11T15:15:37;6.07;;;3.88;;
42668;SDS011;29384;42.028;21.388;2022-11-11T15:27:04;3.60;;;2.90;;
42668;SDS011;29384;42.028;21.388;2022-11-11T15:37:45;6.90;;;5.07;;
42668;SDS011;29384;42.028;21.388;2022-11-11T15:43:37;25.75;;;8.27;;
42668;SDS011;29384;42.028;21.388;2022-11-11T15:46:04;12.55;;;6.28;;
42668;SDS011;29384;42.028;21.388;2022-11-11T15:48:34;11.73;;;7.57;;
42668;SDS011;29384;42.028;21.388;2022-11-11T15:53:46;17.65;;;8.57;;
42668;SDS011;29384;42.028;21.388;2022-11-11T15:59:33;6.05;;;4.68;;
42668;SDS011;29384;42.028;21.388;2022-11-11T16:02:06;10.23;;;5.28;;
42668;SDS011;29384;42.028;21.388;2022-11-11T16:04:38;11.30;;;6.18;;
42668;SDS011;29384;42.028;21.388;2022-11-11T16:07:19;6.88;;;5.30;;
42668;SDS011;29384;42.028;21.388;2022-11-11T16:09:47;22.90;;;6.80;;
42668;SDS011;29384;42.028;21.388;2022-11-11T16:12:16;9.80;;;6.57;;
42668;SDS011;29384;42.028;21.388;2022-11-11T16:14:45;12.43;;;7.65;;
42668;SDS011;29384;42.028;21.388;2022-11-11T16:17:13;23.55;;;9.18;;
42668;SDS011;29384;42.028;21.388;2022-11-11T16:19:40;20.17;;;9.98;;
42668;SDS011;29384;42.028;21.388;2022-11-11T16:22:28;17.95;;;9.90;;
42668;SDS011;29384;42.028;21.388;2022-11-11T16:24:59;13.32;;;6.65;;
42668;SDS011;29384;42.028;21.388;2022-11-11T16:27:30;8.90;;;6.50;;
42668;SDS011;29384;42.028;21.388;2022-11-11T16:30:13;6.57;;;5.30;;
42668;SDS011;29384;42.028;21.388;2022-11-11T16:32:43;7.90;;;4.95;;
42668;SDS011;29384;42.028;21.388;2022-11-11T16:35:21;6.10;;;4.45;;
42668;SDS011;29384;42.028;21.388;2022-11-11T16:37:53;12.68;;;4.18;;
42668;SDS011;29384;42.028;21.388;2022-11-11T16:45:47;7.68;;;4.80;;
42668;SDS011;29384;42.028;21.388;2022-11-11T16:48:38;10.40;;;4.90;;
42668;SDS011;29384;42.028;21.388;2022-11-11T16:51:05;14.05;;;7.18;;
42668;SDS011;29384;42.028;21.388;2022-11-11T16:53:51;12.65;;;7.80;;
42668;SDS011;29384;42.028;21.388;2022-11-11T16:56:31;42.10;;;16.70;;
42668;SDS011;29384;42.028;21.388;2022-11-11T16:59:07;18.05;;;11.32;;
42668;SDS011;29384;42.028;21.388;2022-11-11T17:01:42;9.82;;;6.50;;
42668;SDS011;29384;42.028;21.388;2022-11-11T17:04:10;7.88;;;4.22;;
42668;SDS011;29384;42.028;21.388;2022-11-11T17:12:04;8.45;;;5.45;;
42668;SDS011;29384;42.028;21.388;2022-11-11T17:14:32;12.95;;;6.30;;
42668;SDS011;29384;42.028;21.388;2022-11-11T17:17:00;10.52;;;6.07;;
42668;SDS011;29384;42.028;21.388;2022-11-11T17:19:28;11.77;;;7.63;;
42668;SDS011;29384;42.028;21.388;2022-11-11T17:22:01;11.15;;;7.18;;
42668;SDS011;29384;42.028;21.388;2022-11-11T17:24:29;8.88;;;6.60;;
42668;SDS011;29384;42.028;21.388;2022-11-11T17:26:54;12.75;;;8.18;;
42668;SDS011;29384;42.028;21.388;2022-11-11T17:29:20;20.67;;;9.55;;
42668;SDS011;29384;42.028;21.388;2022-11-11T17:31:45;69.60;;;21.40;;
42668;SDS011;29384;42.028;21.388;2022-11-11T17:34:11;43.17;;;14.90;;
42668;SDS011;29384;42.028;21.388;2022-11-11T17:36:36;24.73;;;10.32;;
42668;SDS011;29384;42.028;21.388;2022-11-11T17:39:02;19.20;;;7.95;;
42668;SDS011;29384;42.028;21.388;2022-11-11T17:41:28;14.50;;;6.63;;
42668;SDS011;29384;42.028;21.388;2022-11-11T17:43:53;11.57;;;6.15;;
42668;SDS011;29384;42.028;21.388;2022-11-11T17:46:18;7.55;;;5.22;;
42668;SDS011;29384;42.028;21.388;2022-11-11T17:48:44;7.60;;;4.78;;
42668;SDS011;29384;42.028;21.388;2022-11-11T17:51:09;6.93;;;5.55;;
42668;SDS011;29384;42.028;21.388;2022-11-11T17:53:35;16.88;;;9.23;;
42668;SDS011;29384;42.028;21.388;2022-11-11T17:56:04;26.88;;;11.07;;
42668;SDS011;29384;42.028;21.388;2022-11-11T17:58:32;20.08;;;9.45;;
42668;SDS011;29384;42.028;21.388;2022-11-11T18:01:06;16.08;;;9.23;;
42668;SDS011;29384;42.028;21.388;2022-11-11T18:03:32;18.75;;;10.32;;
42668;SDS011;29384;42.028;21.388;2022-11-11T18:05:58;33.05;;;14.13;;
42668;SDS011;29384;42.028;21.388;2022-11-11T18:08:23;27.63;;;16.83;;
42668;SDS011;29384;42.028;21.388;2022-11-11T18:10:49;30.42;;;16.08;;
42668;SDS011;29384;42.028;21.388;2022-11-11T18:13:14;29.15;;;17.23;;
42668;SDS011;29384;42.028;21.388;2022-11-11T18:15:40;34.95;;;15.65;;
42668;SDS011;29384;42.028;21.388;2022-11-11T18:18:05;27.88;;;15.13;;
42668;SDS011;29384;42.028;21.388;2022-11-11T18:20:31;21.38;;;13.48;;
42668;SDS011;29384;42.028;21.388;2022-11-11T18:22:56;23.60;;;14.23;;
42668;SDS011;29384;42.028;21.388;2022-11-11T18:25:21;27.60;;;16.75;;
42668;SDS011;29384;42.028;21.388;2022-11-11T18:27:47;29.67;;;16.65;;
42668;SDS011;29384;42.028;21.388;2022-11-11T18:30:13;26.42;;;15.60;;
42668;SDS011;29384;42.028;21.388;2022-11-11T18:32:39;32.97;;;15.32;;
42668;SDS011;29384;42.028;21.388;2022-11-11T18:35:04;24.90;;;14.13;;